createdAt,value
2023-01-02T00:01:26.289Z,94742.69
2023-01-02T00:03:57.995Z,94743.94
2023-01-02T00:06:25.632Z,94738.56
2023-01-02T00:08:52.908Z,94734.41
2023-01-02T00:11:20.542Z,94743.00
2023-01-02T00:13:47.919Z,94747.78
2023-01-02T00:16:15.235Z,94750.19
2023-01-02T00:18:42.749Z,94744.66
2023-01-02T00:21:10.561Z,94748.56
2023-01-02T00:23:38.101Z,94748.00
2023-01-02T00:26:06.871Z,94742.69
2023-01-02T00:28:34.354Z,94746.06
2023-01-02T00:31:09.652Z,94745.69
2023-01-02T00:33:37.879Z,94744.97
2023-01-02T00:36:10.444Z,94744.75
2023-01-02T00:38:38.913Z,94740.53
2023-01-02T00:41:06.887Z,94737.94
2023-01-02T00:43:34.410Z,94737.28
2023-01-02T00:46:07.648Z,94742.59
2023-01-02T00:48:38.439Z,94733.59
2023-01-02T00:51:06.419Z,94732.94
2023-01-02T00:53:35.378Z,94736.78
2023-01-02T00:56:02.918Z,94734.03
2023-01-02T00:58:30.503Z,94735.44
2023-01-02T01:00:58.009Z,94735.53
2023-01-02T01:03:25.289Z,94733.31
2023-01-02T01:05:52.839Z,94735.38
2023-01-02T01:08:20.103Z,94726.63
2023-01-02T01:10:47.396Z,94726.22
2023-01-02T01:13:15.012Z,94727.56
2023-01-02T01:15:42.219Z,94723.19
2023-01-02T01:18:09.559Z,94726.37
2023-01-02T01:20:40.534Z,94735.53
2023-01-02T01:23:07.799Z,94719.09
2023-01-02T01:25:37.350Z,94718.03
2023-01-02T01:28:04.949Z,94713.91
2023-01-02T01:30:32.259Z,94717.59
2023-01-02T01:33:00.775Z,94714.78
2023-01-02T01:35:28.403Z,94712.44
2023-01-02T01:37:55.662Z,94707.66
2023-01-02T01:40:23.069Z,94712.44
2023-01-02T01:42:52.118Z,94704.37
2023-01-02T01:45:21.226Z,94707.38
2023-01-02T01:47:59.033Z,94704.53
2023-01-02T01:50:33.819Z,94696.13
2023-01-02T01:53:22.268Z,94693.19
2023-01-02T01:55:53.712Z,94697.56
2023-01-02T01:58:27.677Z,94703.59
2023-01-02T02:00:56.386Z,94696.66
2023-01-02T02:03:28.830Z,94695.91
2023-01-02T02:05:58.271Z,94697.69
2023-01-02T02:08:29.347Z,94692.47
2023-01-02T02:10:59.753Z,94681.69
2023-01-02T02:13:27.104Z,94691.72
2023-01-02T02:16:13.221Z,94686.47
2023-01-02T02:19:03.053Z,94684.25
2023-01-02T02:21:48.973Z,94694.91
2023-01-02T02:24:28.840Z,94694.31
2023-01-02T02:27:08.296Z,94688.53
2023-01-02T02:30:14.416Z,94683.91
2023-01-02T02:32:50.992Z,94692.31
2023-01-02T02:35:34.127Z,94687.50
2023-01-02T02:38:15.192Z,94688.69
2023-01-02T02:40:42.745Z,94693.78
2023-01-02T02:43:30.663Z,94691.62
2023-01-02T02:46:29.571Z,94692.31
2023-01-02T02:49:24.690Z,94692.59
2023-01-02T02:52:00.525Z,94687.44
2023-01-02T02:54:38.062Z,94689.94
2023-01-02T02:57:08.204Z,94698.88
2023-01-02T02:59:37.589Z,94686.47
2023-01-02T03:02:05.495Z,94682.44
2023-01-02T03:04:33.401Z,94681.31
2023-01-02T03:07:10.997Z,94690.78
2023-01-02T03:09:58.494Z,94689.25
2023-01-02T03:12:37.920Z,94687.63
2023-01-02T03:15:48.340Z,94683.00
2023-01-02T03:18:36.301Z,94676.88
2023-01-02T03:21:41.844Z,94675.56
2023-01-02T03:24:12.067Z,94670.22
2023-01-02T03:26:44.859Z,94668.75
2023-01-02T03:29:30.973Z,94666.97
2023-01-02T03:32:01.820Z,94661.62
2023-01-02T03:34:32.834Z,94664.63
2023-01-02T03:37:12.131Z,94662.12
2023-01-02T03:39:47.985Z,94660.59
2023-01-02T03:42:29.368Z,94661.62
2023-01-02T03:45:00.217Z,94664.94
2023-01-02T03:47:36.636Z,94667.88
2023-01-02T03:50:28.946Z,94671.44
2023-01-02T03:52:56.641Z,94670.72
2023-01-02T03:55:25.283Z,94673.66
2023-01-02T03:58:01.294Z,94673.72
2023-01-02T04:00:54.212Z,94672.41
2023-01-02T04:03:31.209Z,94676.28
2023-01-02T04:06:07.567Z,94675.78
2023-01-02T04:08:46.359Z,94671.13
2023-01-02T04:11:18.160Z,94679.84
2023-01-02T04:13:51.306Z,94677.34
2023-01-02T04:16:24.335Z,94690.00
2023-01-02T04:19:03.908Z,94687.59
2023-01-02T04:21:34.084Z,94693.19
2023-01-02T04:24:11.405Z,94695.94
2023-01-02T04:26:57.956Z,94693.72
2023-01-02T04:29:26.005Z,94698.34
2023-01-02T04:32:22.976Z,94695.09
2023-01-02T04:34:52.801Z,94698.88
2023-01-02T04:37:39.062Z,94693.12
2023-01-02T04:40:12.950Z,94695.47
2023-01-02T04:42:40.912Z,94693.78
2023-01-02T04:45:09.344Z,94694.22
2023-01-02T04:47:37.298Z,94698.13
2023-01-02T04:50:06.441Z,94698.00
2023-01-02T04:52:37.324Z,94701.09
2023-01-02T04:55:08.528Z,94705.59
2023-01-02T04:57:37.559Z,94705.34
2023-01-02T05:00:12.347Z,94711.19
2023-01-02T05:02:40.970Z,94710.66
2023-01-02T05:05:09.495Z,94707.34
2023-01-02T05:07:37.929Z,94709.91
2023-01-02T05:10:08.633Z,94708.81
2023-01-02T05:12:37.383Z,94714.00
2023-01-02T05:15:06.775Z,94719.22
2023-01-02T05:17:36.028Z,94716.94
2023-01-02T05:20:05.139Z,94714.88
2023-01-02T05:22:51.495Z,94720.63
2023-01-02T05:25:19.516Z,94714.81
2023-01-02T05:27:47.038Z,94709.44
2023-01-02T05:30:14.458Z,94710.44
2023-01-02T05:32:43.477Z,94708.00
2023-01-02T05:35:10.865Z,94708.59
2023-01-02T05:37:38.655Z,94715.53
2023-01-02T05:40:08.697Z,94709.72
2023-01-02T05:42:36.843Z,94708.22
2023-01-02T05:45:06.534Z,94713.78
2023-01-02T05:47:34.757Z,94712.88
2023-01-02T05:50:06.709Z,94716.19
2023-01-02T05:52:37.588Z,94705.81
2023-01-02T05:55:11.288Z,94707.12
2023-01-02T05:57:39.073Z,94718.56
2023-01-02T06:00:06.856Z,94716.03
2023-01-02T06:02:43.105Z,94715.00
2023-01-02T06:05:16.794Z,94717.78
2023-01-02T06:07:44.053Z,94716.66
2023-01-02T06:10:11.323Z,94723.03
2023-01-02T06:12:39.126Z,94728.66
2023-01-02T06:15:06.969Z,94732.66
2023-01-02T06:17:35.617Z,94737.91
2023-01-02T06:20:03.569Z,94725.63
2023-01-02T06:22:30.983Z,94730.19
2023-01-02T06:24:58.282Z,94728.88
2023-01-02T06:27:27.099Z,94729.28
2023-01-02T06:29:54.958Z,94724.81
2023-01-02T06:32:22.461Z,94724.56
2023-01-02T06:34:50.504Z,94733.53
2023-01-02T06:37:18.148Z,94737.72
2023-01-02T06:39:45.656Z,94735.13
2023-01-02T06:42:14.080Z,94727.03
2023-01-02T06:44:41.494Z,94730.84
2023-01-02T06:47:08.880Z,94729.41
2023-01-02T06:49:36.828Z,94729.63
2023-01-02T06:52:04.304Z,94729.78
2023-01-02T06:54:32.832Z,94727.09
2023-01-02T06:57:00.561Z,94726.91
2023-01-02T06:59:27.841Z,94723.88
2023-01-02T07:01:55.269Z,94726.81
2023-01-02T07:04:22.988Z,94720.91
2023-01-02T07:06:50.298Z,94720.59
2023-01-02T07:09:18.146Z,94732.69
2023-01-02T07:11:46.243Z,94728.25
2023-01-02T07:14:14.135Z,94727.22
2023-01-02T07:16:41.466Z,94734.37
2023-01-02T07:19:09.171Z,94728.44
2023-01-02T07:21:36.611Z,94733.00
2023-01-02T07:24:04.080Z,94733.53
2023-01-02T07:26:31.762Z,94722.75
2023-01-02T07:28:59.095Z,94731.03
2023-01-02T07:31:29.395Z,94726.09
2023-01-02T07:33:59.218Z,94728.44
2023-01-02T07:36:27.503Z,94727.41
2023-01-02T07:38:57.431Z,94724.88
2023-01-02T07:41:26.959Z,94722.78
2023-01-02T07:43:56.500Z,94729.41
2023-01-02T07:46:24.353Z,94730.25
2023-01-02T07:48:52.607Z,94727.50
2023-01-02T07:51:26.637Z,94722.22
2023-01-02T07:53:57.380Z,94730.22
2023-01-02T07:56:26.320Z,94731.09
2023-01-02T07:58:53.990Z,94729.66
2023-01-02T08:01:22.063Z,94728.41
2023-01-02T08:03:49.871Z,94717.97
2023-01-02T08:06:18.368Z,94725.09
2023-01-02T08:08:46.278Z,94721.06
2023-01-02T08:11:16.681Z,94722.38
2023-01-02T08:13:44.737Z,94713.34
2023-01-02T08:16:14.915Z,94717.50
2023-01-02T08:18:43.017Z,94716.88
2023-01-02T08:21:11.322Z,94711.16
2023-01-02T08:23:39.393Z,94708.31
2023-01-02T08:26:09.121Z,94709.28
2023-01-02T08:28:38.361Z,94704.44
2023-01-02T08:31:17.037Z,94701.53
2023-01-02T08:33:45.254Z,94704.63
2023-01-02T08:36:14.834Z,94708.03
2023-01-02T08:38:42.644Z,94705.28
2023-01-02T08:41:11.408Z,94704.78
2023-01-02T08:43:38.862Z,94706.09
2023-01-02T08:46:09.504Z,94695.06
2023-01-02T08:48:37.429Z,94701.03
2023-01-02T08:51:05.579Z,94695.25
2023-01-02T08:53:32.922Z,94690.41
2023-01-02T08:56:20.796Z,94695.56
2023-01-02T08:58:53.064Z,94692.62
2023-01-02T09:01:21.304Z,94684.22
2023-01-02T09:03:48.795Z,94681.47
2023-01-02T09:06:21.535Z,94682.91
2023-01-02T09:08:53.033Z,94679.00
2023-01-02T09:11:24.842Z,94676.53
2023-01-02T09:13:52.854Z,94674.59
2023-01-02T09:16:21.117Z,94673.81
2023-01-02T09:18:49.132Z,94675.94
2023-01-02T09:21:17.219Z,94665.28
2023-01-02T09:23:44.642Z,94656.47
2023-01-02T09:26:13.688Z,94656.44
2023-01-02T09:28:41.654Z,94649.53
2023-01-02T09:31:13.151Z,94655.94
2023-01-02T09:33:43.027Z,94646.84
2023-01-02T09:36:13.342Z,94639.34
2023-01-02T09:38:41.035Z,94633.00
2023-01-02T09:41:29.576Z,94624.62
2023-01-02T09:44:14.883Z,94624.66
2023-01-02T09:46:57.623Z,94612.34
2023-01-02T09:49:29.164Z,94615.75
2023-01-02T09:51:57.641Z,94604.34
2023-01-02T09:54:28.523Z,94601.84
2023-01-02T09:57:14.906Z,94597.22
2023-01-02T10:00:04.061Z,94580.94
2023-01-02T10:03:14.971Z,94591.47
2023-01-02T10:06:05.914Z,94579.38
2023-01-02T10:08:59.525Z,94575.34
2023-01-02T10:11:56.588Z,94563.75
2023-01-02T10:15:00.234Z,94566.53
2023-01-02T10:17:35.286Z,94558.78
2023-01-02T10:20:22.096Z,94554.19
2023-01-02T10:23:03.031Z,94549.47
2023-01-02T10:25:39.862Z,94538.47
2023-01-02T10:28:16.305Z,94527.97
2023-01-02T10:30:50.707Z,94531.19
2023-01-02T10:33:27.070Z,94527.00
2023-01-02T10:36:00.449Z,94525.03
2023-01-02T10:38:36.070Z,94518.78
2023-01-02T10:41:03.866Z,94512.53
2023-01-02T10:43:35.051Z,94508.34
2023-01-02T10:46:04.477Z,94507.38
2023-01-02T10:48:37.578Z,94498.84
2023-01-02T10:51:11.825Z,94501.81
2023-01-02T10:53:39.637Z,94496.22
2023-01-02T10:56:18.814Z,94491.88
2023-01-02T10:58:51.817Z,94486.03
2023-01-02T11:01:22.006Z,94494.03
2023-01-02T11:04:10.501Z,94488.75
2023-01-02T11:06:51.275Z,94482.87
2023-01-02T11:09:30.358Z,94480.53
2023-01-02T11:12:13.509Z,94476.63
2023-01-02T11:14:41.343Z,94466.81
2023-01-02T11:17:22.011Z,94462.50
2023-01-02T11:19:55.794Z,94459.81
2023-01-02T11:22:34.381Z,94453.25
2023-01-02T11:25:03.224Z,94448.94
2023-01-02T11:27:36.892Z,94447.94
2023-01-02T11:30:07.614Z,94438.50
2023-01-02T11:32:41.667Z,94439.56
2023-01-02T11:35:32.342Z,94427.44
2023-01-02T11:38:01.755Z,94427.09
2023-01-02T11:40:33.234Z,94424.44
2023-01-02T11:43:26.189Z,94425.75
2023-01-02T11:45:55.034Z,94420.41
2023-01-02T11:48:23.876Z,94416.50
2023-01-02T11:50:53.045Z,94418.12
2023-01-02T11:53:27.343Z,94412.16
2023-01-02T11:55:58.798Z,94412.47
2023-01-02T11:58:48.413Z,94410.84
2023-01-02T12:01:29.620Z,94404.78
2023-01-02T12:03:57.899Z,94409.13
2023-01-02T12:06:43.561Z,94408.31
2023-01-02T12:09:14.017Z,94398.25
2023-01-02T12:11:57.002Z,94398.44
2023-01-02T12:14:54.529Z,94384.31
2023-01-02T12:17:43.961Z,94385.41
2023-01-02T12:20:27.068Z,94380.84
2023-01-02T12:23:13.032Z,94379.22
2023-01-02T12:26:15.092Z,94375.19
2023-01-02T12:29:47.117Z,94377.47
2023-01-02T12:32:32.206Z,94371.22
2023-01-02T12:35:25.713Z,94371.03
2023-01-02T12:37:56.685Z,94369.41
2023-01-02T12:41:12.435Z,94368.91
2023-01-02T12:43:58.684Z,94371.56
2023-01-02T12:46:49.157Z,94368.56
2023-01-02T12:49:41.021Z,94362.78
2023-01-02T12:52:15.041Z,94356.50
2023-01-02T12:55:05.936Z,94356.31
2023-01-02T12:57:43.333Z,94354.75
2023-01-02T13:00:48.788Z,94353.78
2023-01-02T13:03:42.083Z,94353.47
2023-01-02T13:06:45.123Z,94350.81
2023-01-02T13:09:23.904Z,94346.13
2023-01-02T13:12:03.896Z,94348.72
2023-01-02T13:14:59.488Z,94344.03
2023-01-02T13:17:37.996Z,94342.06
2023-01-02T13:20:05.199Z,94344.84
2023-01-02T13:22:42.106Z,94351.28
2023-01-02T13:25:18.877Z,94344.91
2023-01-02T13:27:49.234Z,94343.38
2023-01-02T13:30:35.163Z,94341.47
2023-01-02T13:33:14.744Z,94348.28
2023-01-02T13:35:42.164Z,94345.31
2023-01-02T13:38:15.206Z,94345.31
2023-01-02T13:40:42.901Z,94352.97
2023-01-02T13:43:19.191Z,94341.25
2023-01-02T13:45:51.596Z,94344.47
2023-01-02T13:48:39.631Z,94349.78
2023-01-02T13:51:13.380Z,94351.81
2023-01-02T13:53:43.326Z,94354.00
2023-01-02T13:56:16.988Z,94351.34
2023-01-02T13:59:41.915Z,94352.84
2023-01-02T14:02:20.401Z,94350.16
2023-01-02T14:04:48.410Z,94351.09
2023-01-02T14:07:24.874Z,94347.72
2023-01-02T14:10:10.943Z,94354.72
2023-01-02T14:12:53.541Z,94359.91
2023-01-02T14:15:25.447Z,94357.91
2023-01-02T14:18:02.419Z,94357.16
2023-01-02T14:20:33.189Z,94364.62
2023-01-02T14:23:10.498Z,94369.09
2023-01-02T14:25:47.959Z,94369.34
2023-01-02T14:28:29.252Z,94369.91
2023-01-02T14:30:58.424Z,94365.06
2023-01-02T14:33:35.298Z,94367.13
2023-01-02T14:36:10.216Z,94370.53
2023-01-02T14:38:54.207Z,94383.28
2023-01-02T14:42:08.794Z,94378.91
2023-01-02T14:44:46.852Z,94379.94
2023-01-02T14:47:21.164Z,94381.00
2023-01-02T14:49:55.143Z,94381.63
2023-01-02T14:52:29.556Z,94380.50
2023-01-02T14:55:21.464Z,94376.63
2023-01-02T14:57:52.679Z,94380.38
2023-01-02T15:00:38.702Z,94376.28
2023-01-02T15:03:33.464Z,94375.72
2023-01-02T15:06:27.873Z,94375.03
2023-01-02T15:09:05.241Z,94378.50
2023-01-02T15:11:52.840Z,94379.84
2023-01-02T15:14:23.849Z,94379.06
2023-01-02T15:16:56.684Z,94378.50
2023-01-02T15:19:33.497Z,94383.34
2023-01-02T15:22:13.351Z,94389.34
2023-01-02T15:24:48.331Z,94393.25
2023-01-02T15:27:30.468Z,94389.72
2023-01-02T15:30:01.209Z,94400.38
2023-01-02T15:32:32.509Z,94393.03
2023-01-02T15:35:36.226Z,94402.72
2023-01-02T15:38:06.901Z,94402.19
2023-01-02T15:40:36.300Z,94407.63
2023-01-02T15:43:32.663Z,94412.84
2023-01-02T15:46:00.710Z,94414.91
2023-01-02T15:48:29.246Z,94409.25
2023-01-02T15:50:59.482Z,94410.28
2023-01-02T15:53:34.854Z,94408.50
2023-01-02T15:56:02.357Z,94405.87
2023-01-02T15:58:32.433Z,94419.91
2023-01-02T16:01:18.660Z,94411.31
2023-01-02T16:04:02.470Z,94418.12
2023-01-02T16:06:30.909Z,94417.72
2023-01-02T16:09:01.022Z,94420.66
2023-01-02T16:11:29.530Z,94421.53
2023-01-02T16:14:22.462Z,94421.09
2023-01-02T16:16:59.707Z,94421.91
2023-01-02T16:19:35.230Z,94419.81
2023-01-02T16:22:12.268Z,94419.97
2023-01-02T16:24:50.435Z,94428.41
2023-01-02T16:27:27.412Z,94427.47
2023-01-02T16:29:55.019Z,94427.69
2023-01-02T16:32:31.464Z,94432.09
2023-01-02T16:35:01.169Z,94431.84
2023-01-02T16:37:32.931Z,94432.06
2023-01-02T16:40:58.775Z,94430.00
2023-01-02T16:43:14.134Z,94433.34
2023-01-02T16:45:41.909Z,94436.19
2023-01-02T16:48:16.298Z,94436.28
2023-01-02T16:50:46.328Z,94427.88
2023-01-02T16:53:18.815Z,94437.37
2023-01-02T16:55:47.174Z,94433.00
2023-01-02T16:58:14.620Z,94441.19
2023-01-02T17:00:43.810Z,94435.13
2023-01-02T17:03:21.232Z,94447.75
2023-01-02T17:06:12.433Z,94440.06
2023-01-02T17:08:40.740Z,94449.44
2023-01-02T17:11:09.345Z,94444.28
2023-01-02T17:13:36.812Z,94448.50
2023-01-02T17:16:06.975Z,94455.38
2023-01-02T17:18:35.398Z,94453.78
2023-01-02T17:21:03.635Z,94453.28
2023-01-02T17:23:31.673Z,94456.12
2023-01-02T17:25:59.610Z,94458.22
2023-01-02T17:28:27.943Z,94456.16
2023-01-02T17:30:55.816Z,94458.44
2023-01-02T17:33:23.984Z,94450.91
2023-01-02T17:35:51.886Z,94455.59
2023-01-02T17:38:20.003Z,94458.75
2023-01-02T17:40:49.097Z,94459.69
2023-01-02T17:43:17.385Z,94460.87
2023-01-02T17:45:46.028Z,94469.94
2023-01-02T17:48:17.248Z,94469.34
2023-01-02T17:50:51.647Z,94464.38
2023-01-02T17:53:18.944Z,94461.16
2023-01-02T17:56:20.547Z,94465.28
2023-01-02T17:58:44.759Z,94467.16
2023-01-02T18:01:21.390Z,94465.28
2023-01-02T18:03:49.298Z,94475.94
2023-01-02T18:06:17.989Z,94469.81
2023-01-02T18:08:45.779Z,94467.22
2023-01-02T18:11:16.267Z,94468.59
2023-01-02T18:13:47.885Z,94466.72
2023-01-02T18:16:22.411Z,94472.16
2023-01-02T18:18:51.287Z,94473.31
2023-01-02T18:21:22.213Z,94471.69
2023-01-02T18:23:55.288Z,94471.03
2023-01-02T18:26:24.764Z,94467.50
2023-01-02T18:29:02.946Z,94475.75
2023-01-02T18:31:41.612Z,94477.25
2023-01-02T18:34:47.790Z,94483.28
2023-01-02T18:37:23.939Z,94480.34
2023-01-02T18:39:51.443Z,94470.75
2023-01-02T18:42:29.002Z,94482.34
2023-01-02T18:45:00.049Z,94481.25
2023-01-02T18:47:31.750Z,94479.88
2023-01-02T18:50:24.269Z,94477.34
2023-01-02T18:52:52.337Z,94476.88
2023-01-02T18:55:25.160Z,94478.66
2023-01-02T18:58:01.848Z,94471.34
2023-01-02T19:00:32.738Z,94481.59
2023-01-02T19:03:03.461Z,94483.16
2023-01-02T19:05:32.064Z,94482.94
2023-01-02T19:08:12.920Z,94485.91
2023-01-02T19:10:43.336Z,94485.47
2023-01-02T19:13:31.396Z,94483.37
2023-01-02T19:16:01.109Z,94483.09
2023-01-02T19:18:41.655Z,94479.97
2023-01-02T19:21:13.297Z,94482.78
2023-01-02T19:23:48.544Z,94474.38
2023-01-02T19:26:24.766Z,94475.87
2023-01-02T19:29:11.541Z,94482.13
2023-01-02T19:31:58.000Z,94480.69
2023-01-02T19:34:48.291Z,94475.34
2023-01-02T19:37:30.574Z,94476.97
2023-01-02T19:40:00.200Z,94483.66
2023-01-02T19:42:32.205Z,94475.41
2023-01-02T19:45:06.864Z,94480.59
2023-01-02T19:47:37.942Z,94484.75
2023-01-02T19:50:10.071Z,94487.88
2023-01-02T19:52:38.057Z,94483.53
2023-01-02T19:55:07.463Z,94478.03
2023-01-02T19:57:34.999Z,94484.03
2023-01-02T20:00:05.712Z,94476.75
2023-01-02T20:02:39.864Z,94481.13
2023-01-02T20:05:08.329Z,94483.19
2023-01-02T20:07:35.713Z,94480.78
2023-01-02T20:10:03.273Z,94474.16
2023-01-02T20:12:31.031Z,94491.31
2023-01-02T20:14:59.980Z,94484.50
2023-01-02T20:17:30.841Z,94481.78
2023-01-02T20:19:58.922Z,94478.19
2023-01-02T20:22:27.858Z,94478.19
2023-01-02T20:24:56.155Z,94473.84
2023-01-02T20:27:25.083Z,94475.59
2023-01-02T20:29:54.097Z,94468.37
2023-01-02T20:32:22.459Z,94476.56
2023-01-02T20:34:51.176Z,94470.97
2023-01-02T20:37:21.805Z,94475.50
2023-01-02T20:39:51.021Z,94470.31
2023-01-02T20:42:20.377Z,94477.09
2023-01-02T20:44:49.512Z,94475.50
2023-01-02T20:47:17.365Z,94471.28
2023-01-02T20:49:45.119Z,94471.62
2023-01-02T20:52:12.461Z,94474.84
2023-01-02T20:54:40.798Z,94487.78
2023-01-02T20:57:08.476Z,94484.56
2023-01-02T20:59:35.831Z,94479.53
2023-01-02T21:02:03.434Z,94487.50
2023-01-02T21:04:36.532Z,94481.00
2023-01-02T21:07:06.279Z,94479.88
2023-01-02T21:09:34.085Z,94487.81
2023-01-02T21:12:01.899Z,94482.31
2023-01-02T21:14:35.448Z,94481.19
2023-01-02T21:17:05.386Z,94483.91
2023-01-02T21:19:32.794Z,94486.50
2023-01-02T21:22:00.719Z,94486.66
2023-01-02T21:24:28.629Z,94484.72
2023-01-02T21:26:55.976Z,94486.19
2023-01-02T21:29:23.354Z,94482.28
2023-01-02T21:31:51.210Z,94484.56
2023-01-02T21:34:18.594Z,94481.28
2023-01-02T21:36:45.932Z,94481.28
2023-01-02T21:39:13.554Z,94476.44
2023-01-02T21:41:59.937Z,94477.44
2023-01-02T21:44:27.628Z,94474.16
2023-01-02T21:46:55.022Z,94470.16
2023-01-02T21:49:22.456Z,94475.78
2023-01-02T21:51:52.705Z,94471.91
2023-01-02T21:54:20.323Z,94473.38
2023-01-02T21:56:47.650Z,94470.31
2023-01-02T21:59:15.322Z,94472.25
2023-01-02T22:01:42.754Z,94471.91
2023-01-02T22:04:11.480Z,94473.88
2023-01-02T22:07:04.362Z,94475.47
2023-01-02T22:09:28.347Z,94466.22
2023-01-02T22:11:55.685Z,94473.38
2023-01-02T22:14:32.457Z,94466.59
2023-01-02T22:17:05.850Z,94467.06
2023-01-02T22:19:33.861Z,94464.47
2023-01-02T22:22:02.598Z,94459.91
2023-01-02T22:24:30.499Z,94461.16
2023-01-02T22:27:02.166Z,94451.50
2023-01-02T22:30:00.576Z,94462.72
2023-01-02T22:32:19.048Z,94455.66
2023-01-02T22:34:46.967Z,94455.41
2023-01-02T22:37:22.116Z,94454.38
2023-01-02T22:39:50.690Z,94447.44
2023-01-02T22:45:53.649Z,94443.25
2023-01-02T22:48:26.738Z,94446.81
2023-01-02T22:50:56.711Z,94445.00
2023-01-02T22:53:32.203Z,94436.59
2023-01-02T22:56:13.074Z,94440.28
2023-01-02T22:58:40.726Z,94435.16
2023-01-02T23:01:16.947Z,94428.50
2023-01-02T23:03:46.599Z,94424.84
2023-01-02T23:06:21.575Z,94423.75
2023-01-02T23:08:49.778Z,94423.13
2023-01-02T23:11:18.234Z,94417.19
2023-01-02T23:13:48.993Z,94420.59
2023-01-02T23:16:37.774Z,94413.63
2023-01-02T23:19:18.948Z,94411.22
2023-01-02T23:22:00.353Z,94419.41
2023-01-02T23:24:31.251Z,94419.41
2023-01-02T23:27:03.402Z,94418.09
2023-01-02T23:29:31.490Z,94419.00
2023-01-02T23:32:00.508Z,94411.63
2023-01-02T23:34:30.085Z,94414.41
2023-01-02T23:36:59.271Z,94406.06
2023-01-02T23:39:30.010Z,94412.94
2023-01-02T23:41:57.836Z,94412.91
2023-01-02T23:44:26.189Z,94416.75
2023-01-02T23:46:54.542Z,94408.75
2023-01-02T23:49:23.643Z,94412.94
2023-01-02T23:51:51.957Z,94405.34
2023-01-02T23:54:21.870Z,94406.19
2023-01-02T23:56:51.057Z,94405.84
2023-01-02T23:59:21.500Z,94403.94
